Terminal Aerodrome Forecast
Issued by NWS Charleston, WV

Current Version | Previous Version | Graphics & Text | Print | Product List | Glossary On
Versions: 1 2 3 4 5 6 7 8 9 10 11 12 13 14 15 16 17 18 19 20 21
000
FTUS41 KRLX 121700
TAFCRW
TAF
KCRW 121730Z 1218/1318 VRB05KT P6SM BKN050 BKN100
     FM122200 24006KT P6SM SCT050
     FM130900 VRB03KT 6SM BR SCT060
     FM131200 23008KT P6SM BKN040=

USA.gov is the U.S. government's official web portal to all federal, state and local government web resources and services.